Time;durP1;ratioP1;P1;durP2;ratioP2;P2;SDS_P1;SDS_P2;PMS_P1;PMS_P2;Temp;Humidity;BMP_temperature;BMP_pressure;BME280_temperature;BME280_humidity;BME280_pressure;Samples;Min_cycle;Max_cycle;Signal;HPM_P1;HPM_P2
2022/05/08 00:01:51;;;;;;;8.35;5.00;;;;;;;-139.48;100.00;61774.03;4975628;28;20053;-71
2022/05/08 00:04:36;;;;;;;11.00;5.53;;;;;;;-139.48;100.00;61774.03;4976312;28;20474;-71
2022/05/08 00:07:21;;;;;;;12.55;5.00;;;;;;;-139.48;100.00;61774.03;4975520;28;20105;-71
2022/05/08 00:10:05;;;;;;;7.32;4.75;;;;;;;-139.48;100.00;61774.03;4975565;28;20054;-71
2022/05/08 00:12:49;;;;;;;9.15;5.28;;;;;;;-139.48;100.00;61774.03;4975178;28;20041;-71
2022/05/08 00:15:33;;;;;;;12.25;5.25;;;;;;;-139.48;100.00;61774.03;4976296;28;20570;-72
2022/05/08 00:18:17;;;;;;;6.55;5.30;;;;;;;-139.48;100.00;61774.03;4976122;28;20514;-71
2022/05/08 00:21:02;;;;;;;11.70;6.13;;;;;;;-139.48;100.00;61774.03;4976345;28;20049;-71
2022/05/08 00:23:47;;;;;;;7.13;5.20;;;;;;;-139.48;100.00;61774.03;4961527;28;20053;-71
2022/05/08 00:26:30;;;;;;;7.78;5.15;;;;;;;-139.48;100.00;61774.03;4974929;28;20134;-71
2022/05/08 00:29:15;;;;;;;13.85;5.70;;;;;;;-139.48;100.00;61774.03;4974922;28;20123;-71
2022/05/08 00:31:59;;;;;;;13.63;5.35;;;;;;;-139.48;100.00;61774.03;4976346;28;20085;-72
2022/05/08 00:34:42;;;;;;;9.32;5.80;;;;;;;-139.48;100.00;61774.03;4961214;28;20526;-71
2022/05/08 00:37:27;;;;;;;12.98;5.93;;;;;;;-139.48;100.00;61774.03;4961396;28;20050;-71
2022/05/08 00:40:10;;;;;;;7.28;6.30;;;;;;;-139.48;100.00;61774.03;4975967;28;20058;-72
2022/05/08 00:42:55;;;;;;;7.40;5.93;;;;;;;-139.48;100.00;61774.03;4975543;28;20101;-71
2022/05/08 00:45:39;;;;;;;10.48;6.47;;;;;;;-139.48;100.00;61774.03;4974816;28;20434;-71
2022/05/08 00:48:23;;;;;;;7.32;6.05;;;;;;;-139.48;100.00;61774.03;4974581;28;20122;-71
2022/05/08 00:51:08;;;;;;;10.80;5.95;;;;;;;-139.48;100.00;61774.03;4974127;28;20085;-71
2022/05/08 00:53:55;;;;;;;10.02;6.07;;;;;;;-139.48;100.00;61774.03;4974346;28;20042;-71
2022/05/08 00:56:39;;;;;;;7.40;5.32;;;;;;;-139.48;100.00;61774.03;4974690;28;20514;-71
2022/05/08 00:59:24;;;;;;;6.03;5.43;;;;;;;-139.48;100.00;61774.03;4974318;28;20073;-71
2022/05/08 01:02:08;;;;;;;7.38;6.00;;;;;;;-139.48;100.00;61774.03;4974475;28;20130;-71
2022/05/08 01:04:51;;;;;;;8.82;6.35;;;;;;;-139.48;100.00;61774.03;4975300;28;20046;-71
2022/05/08 01:07:36;;;;;;;10.77;6.60;;;;;;;-139.48;100.00;61774.03;4960879;28;20049;-72
2022/05/08 01:10:20;;;;;;;10.55;6.22;;;;;;;-139.48;100.00;61774.03;4975143;28;20101;-71
2022/05/08 01:13:05;;;;;;;13.23;6.10;;;;;;;-139.48;100.00;61774.03;4975375;28;20081;-72
2022/05/08 01:15:49;;;;;;;14.90;6.43;;;;;;;-139.48;100.00;61774.03;4960605;28;20054;-71
2022/05/08 01:18:33;;;;;;;8.95;5.72;;;;;;;-139.48;100.00;61774.03;4975279;28;20045;-71
2022/05/08 01:21:19;;;;;;;9.50;6.28;;;;;;;-139.48;100.00;61774.03;4960491;28;20054;-71
2022/05/08 01:24:03;;;;;;;9.63;6.80;;;;;;;-139.48;100.00;61774.03;4960385;28;20558;-71
2022/05/08 01:26:50;;;;;;;10.30;6.57;;;;;;;-139.48;100.00;61774.03;4973947;28;20450;-71
2022/05/08 01:29:34;;;;;;;13.25;7.57;;;;;;;-139.48;100.00;61774.03;4974797;28;20129;-71
2022/05/08 01:32:19;;;;;;;11.43;7.18;;;;;;;-139.48;100.00;61774.03;4974105;28;20042;-71
2022/05/08 01:35:03;;;;;;;9.55;7.47;;;;;;;-139.48;100.00;61774.03;4974923;28;20154;-71
2022/05/08 01:37:47;;;;;;;8.02;6.25;;;;;;;-139.48;100.00;61774.03;4974844;28;20510;-71
2022/05/08 01:40:31;;;;;;;7.90;6.43;;;;;;;-139.48;100.00;61774.03;4960062;28;20069;-71
2022/05/08 01:43:15;;;;;;;10.45;7.22;;;;;;;-139.48;100.00;61774.03;4973885;28;20097;-71
2022/05/08 01:46:00;;;;;;;10.30;6.30;;;;;;;-139.48;100.00;61774.03;4974734;28;20185;-71
2022/05/08 01:48:44;;;;;;;8.85;6.65;;;;;;;-139.48;100.00;61774.03;4973917;28;20162;-71
2022/05/08 01:51:28;;;;;;;10.35;6.53;;;;;;;-139.48;100.00;61774.03;4973559;28;20058;-71
2022/05/08 01:54:11;;;;;;;14.20;6.85;;;;;;;-139.48;100.00;61774.03;4974462;28;20081;-71
2022/05/08 01:56:55;;;;;;;11.27;7.22;;;;;;;-139.48;100.00;61774.03;4974486;28;20050;-71
2022/05/08 01:59:39;;;;;;;10.70;7.97;;;;;;;-139.48;100.00;61774.03;4973727;28;20062;-72
2022/05/08 02:02:23;;;;;;;8.85;7.75;;;;;;;-139.48;100.00;61774.03;4973262;28;20419;-72
2022/05/08 02:05:08;;;;;;;9.50;6.82;;;;;;;-139.48;100.00;61774.03;5016155;23;20422;-72
2022/05/08 02:07:53;;;;;;;9.23;7.53;;;;;;;-139.48;100.00;61774.03;5012714;28;20500;-72
2022/05/08 02:10:38;;;;;;;12.90;7.75;;;;;;;-139.48;100.00;61774.03;4998581;28;20559;-72
2022/05/08 02:13:22;;;;;;;9.32;6.53;;;;;;;-139.48;100.00;61774.03;4984757;28;20429;-72
2022/05/08 02:16:06;;;;;;;9.82;8.80;;;;;;;-139.48;100.00;61774.03;4998462;28;20057;-72
2022/05/08 02:18:49;;;;;;;8.32;6.95;;;;;;;-139.48;100.00;61774.03;4984755;28;20048;-72
2022/05/08 02:21:33;;;;;;;15.23;7.95;;;;;;;-139.48;100.00;61774.03;4998877;28;20095;-72
2022/05/08 02:24:17;;;;;;;10.57;8.65;;;;;;;-139.48;100.00;61774.03;4998560;28;20045;-72
2022/05/08 02:27:01;;;;;;;11.50;7.55;;;;;;;-139.48;100.00;61774.03;4998649;28;20417;-72
2022/05/08 02:29:50;;;;;;;11.13;8.68;;;;;;;-139.48;100.00;61774.03;4998628;28;20164;-72
2022/05/08 02:32:34;;;;;;;14.88;9.57;;;;;;;-139.48;100.00;61774.03;4985158;28;20096;-71
2022/05/08 02:35:20;;;;;;;12.98;9.68;;;;;;;-139.48;100.00;61774.03;5013225;28;20069;-72
2022/05/08 02:38:05;;;;;;;9.80;8.45;;;;;;;-139.48;100.00;61774.03;4998367;28;20053;-72
2022/05/08 02:40:48;;;;;;;12.65;8.73;;;;;;;-139.48;100.00;61774.03;5013190;28;20053;-71
2022/05/08 02:43:32;;;;;;;9.90;7.70;;;;;;;-139.48;100.00;61774.03;4998209;28;20084;-72
2022/05/08 02:46:16;;;;;;;15.70;8.93;;;;;;;-139.48;100.00;61774.03;5013015;28;20057;-72
2022/05/08 02:49:00;;;;;;;9.77;8.13;;;;;;;-139.48;100.00;61774.03;5013069;28;20148;-72
2022/05/08 02:51:44;;;;;;;10.68;8.73;;;;;;;-139.48;100.00;61774.03;5013021;28;20108;-71
2022/05/08 02:54:28;;;;;;;10.65;8.82;;;;;;;-139.48;100.00;61774.03;5013384;28;20061;-72
2022/05/08 03:00:15;;;;;;;10.35;8.07;;;;;;;-139.48;100.00;61774.03;5001112;28;20122;-72
2022/05/08 03:02:59;;;;;;;10.85;9.32;;;;;;;-139.48;100.00;61774.03;5013178;28;20107;-72
2022/05/08 03:05:47;;;;;;;12.77;9.50;;;;;;;-139.48;100.00;61774.03;4998374;28;20048;-72
2022/05/08 03:08:31;;;;;;;14.77;9.23;;;;;;;-139.48;100.00;61774.03;4998274;28;20053;-72
2022/05/08 03:11:27;;;;;;;10.70;9.27;;;;;;;-139.48;100.00;61774.03;4984500;28;20115;-72
2022/05/08 03:14:11;;;;;;;13.55;10.55;;;;;;;-139.48;100.00;61774.03;5002573;28;20078;-72
2022/05/08 03:16:55;;;;;;;11.95;10.68;;;;;;;-139.48;100.00;61774.03;5001609;28;20049;-72
2022/05/08 03:19:40;;;;;;;12.73;10.73;;;;;;;-139.48;100.00;61774.03;5001420;28;20121;-72
2022/05/08 03:22:24;;;;;;;13.23;10.55;;;;;;;-139.48;100.00;61774.03;5016147;28;20052;-72
2022/05/08 03:25:08;;;;;;;12.80;10.43;;;;;;;-139.48;100.00;61774.03;5016162;28;20057;-72
2022/05/08 03:27:54;;;;;;;14.48;10.48;;;;;;;-139.48;100.00;61774.03;5016375;28;20044;-72
2022/05/08 03:30:40;;;;;;;12.73;10.30;;;;;;;-139.48;100.00;61774.03;5016329;28;20053;-72
2022/05/08 03:33:26;;;;;;;12.48;10.38;;;;;;;-139.48;100.00;61774.03;4987798;28;20460;-72
2022/05/08 03:36:12;;;;;;;12.80;9.98;;;;;;;-139.48;100.00;61774.03;5001018;28;20112;-72
2022/05/08 03:38:56;;;;;;;17.50;10.13;;;;;;;-139.48;100.00;61774.03;5001736;28;20106;-72
2022/05/08 03:41:40;;;;;;;14.30;11.32;;;;;;;-139.48;100.00;61774.03;5001242;28;20053;-72
2022/05/08 03:44:24;;;;;;;12.90;11.00;;;;;;;-139.48;100.00;61774.03;5000844;28;20045;-72
2022/05/08 03:47:08;;;;;;;12.88;10.70;;;;;;;-139.48;100.00;61774.03;5000873;28;20080;-72
2022/05/08 03:49:53;;;;;;;17.77;11.65;;;;;;;-139.48;100.00;61774.03;5015963;28;20414;-72
2022/05/08 03:52:37;;;;;;;15.98;11.43;;;;;;;-139.48;100.00;61774.03;5000865;28;20044;-72
2022/05/08 03:55:21;;;;;;;19.35;12.00;;;;;;;-139.48;100.00;61774.03;4986915;28;20053;-73
2022/05/08 03:58:05;;;;;;;18.75;11.88;;;;;;;-139.48;100.00;61774.03;5015557;28;20053;-72
2022/05/08 04:00:49;;;;;;;17.58;13.07;;;;;;;-139.48;100.00;61774.03;5015790;28;20654;-72
2022/05/08 04:03:32;;;;;;;14.73;12.15;;;;;;;-139.48;100.00;61774.03;5015370;28;20509;-72
2022/05/08 04:06:16;;;;;;;18.00;12.63;;;;;;;-139.48;100.00;61774.03;5000366;28;20053;-72
2022/05/08 04:09:00;;;;;;;14.77;10.82;;;;;;;-139.48;100.00;61774.03;5000497;28;20088;-72
2022/05/08 04:11:44;;;;;;;14.65;11.23;;;;;;;-139.48;100.00;61774.03;5015353;28;20516;-72
2022/05/08 04:14:28;;;;;;;18.92;12.50;;;;;;;-139.48;100.00;61774.03;5000305;28;20049;-72
2022/05/08 04:17:12;;;;;;;15.63;12.93;;;;;;;-139.48;100.00;61774.03;5015200;28;20088;-72
2022/05/08 04:19:56;;;;;;;15.85;12.30;;;;;;;-139.48;100.00;61774.03;5015119;28;20580;-72
2022/05/08 04:25:56;;;;;;;16.77;12.52;;;;;;;-139.48;100.00;61774.03;4980887;28;20417;-72
2022/05/08 04:28:40;;;;;;;16.45;12.80;;;;;;;-139.48;100.00;61774.03;5015007;28;20065;-72
2022/05/08 04:31:24;;;;;;;16.25;12.77;;;;;;;-139.48;100.00;61774.03;5000379;28;20504;-72
2022/05/08 04:34:08;;;;;;;20.92;13.55;;;;;;;-139.48;100.00;61774.03;5000434;28;20500;-72
2022/05/08 04:36:52;;;;;;;15.02;12.15;;;;;;;-139.48;100.00;61774.03;5014808;28;20544;-72
2022/05/08 04:39:36;;;;;;;16.50;13.07;;;;;;;-139.48;100.00;61774.03;4999921;28;20197;-72
2022/05/08 04:42:20;;;;;;;16.80;12.05;;;;;;;-139.48;100.00;61774.03;4986328;28;20204;-72
2022/05/08 04:45:04;;;;;;;22.05;13.30;;;;;;;-139.48;100.00;61774.03;4999890;28;20052;-72
2022/05/08 04:47:48;;;;;;;26.42;16.63;;;;;;;-139.48;100.00;61774.03;4985942;28;20104;-72
2022/05/08 04:50:32;;;;;;;18.58;14.63;;;;;;;-139.48;100.00;61774.03;4999984;28;20129;-72
2022/05/08 04:53:16;;;;;;;21.45;16.75;;;;;;;-139.48;100.00;61774.03;4986190;28;20105;-72
2022/05/08 04:56:00;;;;;;;17.85;15.10;;;;;;;-139.48;100.00;61774.03;5014394;28;20572;-72
2022/05/08 04:58:44;;;;;;;19.27;15.45;;;;;;;-139.48;100.00;61774.03;4986089;28;20048;-72
2022/05/08 05:01:28;;;;;;;24.83;15.82;;;;;;;-139.48;100.00;61774.03;4999481;28;20122;-72
2022/05/08 05:04:11;;;;;;;23.42;15.52;;;;;;;-139.48;100.00;61774.03;4999375;28;20501;-72
2022/05/08 05:06:55;;;;;;;22.65;15.52;;;;;;;-139.48;100.00;61774.03;5014552;28;20115;-72
2022/05/08 05:09:39;;;;;;;20.80;15.68;;;;;;;-139.48;100.00;61774.03;5014469;28;20540;-72
2022/05/08 05:12:24;;;;;;;20.02;14.90;;;;;;;-139.48;100.00;61774.03;4999317;28;20421;-72
2022/05/08 05:15:08;;;;;;;22.88;15.60;;;;;;;-139.48;100.00;61774.03;4999175;28;20530;-72
2022/05/08 05:17:52;;;;;;;21.10;15.00;;;;;;;-139.48;100.00;61774.03;5014318;28;20137;-72
2022/05/08 05:20:37;;;;;;;22.10;16.38;;;;;;;-139.48;100.00;61774.03;4985516;28;20048;-73
2022/05/08 05:23:21;;;;;;;22.90;15.52;;;;;;;-139.48;100.00;61774.03;4985548;28;20068;-72
2022/05/08 05:26:04;;;;;;;20.75;16.00;;;;;;;-139.48;100.00;61774.03;4999298;28;20065;-72
2022/05/08 05:28:48;;;;;;;22.05;16.52;;;;;;;-139.48;100.00;61774.03;4999285;28;20044;-72
2022/05/08 05:31:32;;;;;;;20.83;15.15;;;;;;;-139.48;100.00;61774.03;4999062;28;20049;-72
2022/05/08 05:34:16;;;;;;;21.67;15.93;;;;;;;-139.48;100.00;61774.03;5014019;28;20088;-72
2022/05/08 05:37:00;;;;;;;21.02;16.13;;;;;;;-139.48;100.00;61774.03;4999099;28;20052;-72
2022/05/08 05:39:44;;;;;;;21.52;16.85;;;;;;;-139.48;100.00;61774.03;4998929;28;20072;-73
2022/05/08 05:42:28;;;;;;;24.58;15.77;;;;;;;-139.48;100.00;61774.03;5013617;28;20061;-72
2022/05/08 05:45:12;;;;;;;25.10;16.23;;;;;;;-139.48;100.00;61774.03;4998771;28;20052;-73
2022/05/08 05:47:59;;;;;;;20.00;16.23;;;;;;;-139.48;100.00;61774.03;4998970;28;20505;-73
2022/05/08 05:50:43;;;;;;;22.45;15.10;;;;;;;-139.48;100.00;61774.03;4998708;28;20201;-72
2022/05/08 05:53:27;;;;;;;21.23;14.95;;;;;;;-139.48;100.00;61774.03;5013853;28;20456;-72
2022/05/08 05:56:11;;;;;;;17.75;14.27;;;;;;;-139.48;100.00;61774.03;5013506;28;20048;-73
2022/05/08 05:58:55;;;;;;;21.42;16.33;;;;;;;-139.48;100.00;61774.03;4998725;28;20045;-72
2022/05/08 06:01:39;;;;;;;20.52;14.70;;;;;;;-139.48;100.00;61774.03;4985185;28;20179;-72
2022/05/08 06:04:23;;;;;;;18.77;14.38;;;;;;;-139.48;100.00;61774.03;4998649;28;20040;-73
2022/05/08 06:07:07;;;;;;;19.17;14.75;;;;;;;-139.48;100.00;61774.03;4998596;28;20120;-73
2022/05/08 06:09:54;;;;;;;22.08;15.40;;;;;;;-139.48;100.00;61774.03;5013701;28;20076;-72
2022/05/08 06:12:38;;;;;;;21.25;14.90;;;;;;;-139.48;100.00;61774.03;4985263;28;20056;-73
2022/05/08 06:15:21;;;;;;;21.92;14.90;;;;;;;-139.48;100.00;61774.03;4998639;28;20052;-73
2022/05/08 06:18:05;;;;;;;17.25;14.45;;;;;;;-139.48;100.00;61774.03;4998970;28;20103;-72
2022/05/08 06:20:49;;;;;;;21.60;14.98;;;;;;;-139.48;100.00;61774.03;4985008;28;20084;-72
2022/05/08 06:23:33;;;;;;;19.05;13.57;;;;;;;-139.48;100.00;61774.03;4984829;28;20053;-72
2022/05/08 06:26:17;;;;;;;18.92;14.25;;;;;;;-139.48;100.00;61774.03;4998301;28;20052;-72
2022/05/08 06:29:01;;;;;;;18.35;13.90;;;;;;;-139.48;100.00;61774.03;4998617;28;20053;-72
2022/05/08 06:31:46;;;;;;;23.42;15.02;;;;;;;-139.48;100.00;61774.03;4998558;28;20052;-73
2022/05/08 06:34:30;;;;;;;15.80;12.60;;;;;;;-139.48;100.00;61774.03;4998928;28;20071;-72
2022/05/08 06:37:14;;;;;;;15.88;12.95;;;;;;;-139.48;100.00;61774.03;4998556;28;20092;-72
2022/05/08 06:39:58;;;;;;;16.73;13.43;;;;;;;-139.48;100.00;61774.03;5013110;28;20108;-73
2022/05/08 06:42:43;;;;;;;15.82;12.57;;;;;;;-139.48;100.00;61774.03;4998347;28;20126;-72
2022/05/08 06:45:27;;;;;;;22.55;14.35;;;;;;;-139.48;100.00;61774.03;4998477;28;20052;-72
2022/05/08 06:48:12;;;;;;;19.98;13.10;;;;;;;-139.48;100.00;61774.03;4999740;28;20053;-73
2022/05/08 06:50:56;;;;;;;18.98;13.90;;;;;;;-139.48;100.00;61774.03;5002328;28;20052;-73
2022/05/08 06:53:43;;;;;;;17.45;13.82;;;;;;;-139.48;100.00;61774.03;4988122;28;20096;-72
2022/05/08 06:56:30;;;;;;;16.95;12.73;;;;;;;-139.48;100.00;61774.03;4988799;28;20057;-73
2022/05/08 07:02:17;;;;;;;15.85;13.40;;;;;;;-139.48;100.00;61774.03;5016553;28;20126;-72
2022/05/08 07:05:00;;;;;;;20.35;13.02;;;;;;;-139.48;100.00;61774.03;5001658;28;20111;-72
2022/05/08 07:07:44;;;;;;;15.68;13.02;;;;;;;-139.48;100.00;61774.03;5001697;28;20131;-72
2022/05/08 07:10:28;;;;;;;19.65;13.35;;;;;;;-139.48;100.00;61774.03;5016977;28;20049;-74
2022/05/08 07:13:12;;;;;;;15.95;12.75;;;;;;;-139.48;100.00;61774.03;5016656;28;20048;-73
2022/05/08 07:15:56;;;;;;;14.70;12.55;;;;;;;-139.48;100.00;61774.03;5001484;28;20052;-72
2022/05/08 07:18:41;;;;;;;15.55;12.52;;;;;;;-139.48;100.00;61774.03;5001990;28;20056;-72
2022/05/08 07:21:25;;;;;;;16.80;12.63;;;;;;;-139.48;100.00;61774.03;5001701;28;20405;-72
2022/05/08 07:24:09;;;;;;;17.27;12.02;;;;;;;-139.48;100.00;61774.03;4987471;28;20076;-73
2022/05/08 07:26:53;;;;;;;13.63;11.20;;;;;;;-139.48;100.00;61774.03;4987844;28;20048;-73
2022/05/08 07:29:41;;;;;;;23.38;16.60;;;;;;;-139.48;100.00;61774.03;5001490;28;20068;-73
2022/05/08 07:32:25;;;;;;;17.92;13.68;;;;;;;-139.48;100.00;61774.03;5001353;28;20049;-72
2022/05/08 07:38:12;;;;;;;14.98;12.15;;;;;;;-139.48;100.00;61774.03;5004041;28;20406;-72
2022/05/08 07:40:56;;;;;;;16.13;11.80;;;;;;;-139.48;100.00;61774.03;5001161;28;20465;-72
2022/05/08 07:43:41;;;;;;;16.15;10.95;;;;;;;-139.48;100.00;61774.03;5001247;28;20073;-72
2022/05/08 07:46:25;;;;;;;14.50;10.10;;;;;;;-139.48;100.00;61774.03;5016053;28;20103;-72
2022/05/08 07:49:10;;;;;;;14.10;11.68;;;;;;;-139.48;100.00;61774.03;5015749;28;20049;-72
2022/05/08 07:51:54;;;;;;;16.30;11.00;;;;;;;-139.48;100.00;61774.03;5001304;28;20413;-73
2022/05/08 07:54:38;;;;;;;13.77;10.40;;;;;;;-139.48;100.00;61774.03;5000978;28;20129;-72
2022/05/08 07:57:22;;;;;;;13.68;11.18;;;;;;;-139.48;100.00;61774.03;5000978;28;20044;-73
2022/05/08 08:00:08;;;;;;;12.82;10.68;;;;;;;-139.48;100.00;61774.03;5015542;28;20136;-73
2022/05/08 08:02:52;;;;;;;12.38;10.68;;;;;;;-139.48;100.00;61774.03;5001143;28;20528;-73
2022/05/08 08:05:35;;;;;;;13.75;10.30;;;;;;;-139.48;100.00;61774.03;5037650;22;20052;-72
2022/05/08 08:08:25;;;;;;;12.48;10.13;;;;;;;-139.48;100.00;61774.03;5000556;28;20417;-71
2022/05/08 08:11:10;;;;;;;12.73;9.57;;;;;;;-139.48;100.00;61774.03;5001269;28;20049;-71
2022/05/08 08:13:55;;;;;;;12.68;9.80;;;;;;;-139.48;100.00;61774.03;5014571;28;20053;-72
2022/05/08 08:16:39;;;;;;;12.80;10.25;;;;;;;-139.48;100.00;61774.03;5015152;28;20056;-71
2022/05/08 08:19:23;;;;;;;14.32;10.68;;;;;;;-139.48;100.00;61774.03;5000280;28;20077;-71
2022/05/08 08:22:07;;;;;;;10.52;9.48;;;;;;;-139.48;100.00;61774.03;5000687;28;20096;-71
2022/05/08 08:24:51;;;;;;;12.68;10.13;;;;;;;-139.48;100.00;61774.03;4986882;28;20183;-72
2022/05/08 08:27:35;;;;;;;12.55;10.00;;;;;;;-139.48;100.00;61774.03;5000436;28;20053;-71
2022/05/08 08:30:19;;;;;;;15.30;10.50;;;;;;;-139.48;100.00;61774.03;5000345;28;20049;-72
2022/05/08 08:33:03;;;;;;;11.95;9.50;;;;;;;-139.48;100.00;61774.03;4986489;28;20041;-72
2022/05/08 08:35:46;;;;;;;10.35;9.35;;;;;;;-139.48;100.00;61774.03;4986339;28;20408;-71
2022/05/08 08:38:30;;;;;;;12.15;9.25;;;;;;;-139.48;100.00;61774.03;5014750;28;20076;-72
2022/05/08 08:41:14;;;;;;;9.65;8.27;;;;;;;-139.48;100.00;61774.03;4986410;28;20421;-72
2022/05/08 08:50:09;;;;;;;11.15;9.10;;;;;;;-139.48;100.00;61774.03;5002367;28;20605;-71
2022/05/08 08:52:54;;;;;;;13.45;8.90;;;;;;;-139.48;100.00;61774.03;4999845;28;20543;-71
2022/05/08 08:55:38;;;;;;;11.20;9.02;;;;;;;-139.48;100.00;61774.03;4999611;28;20045;-71
2022/05/08 08:58:22;;;;;;;10.07;8.93;;;;;;;-139.48;100.00;61774.03;4999748;28;20092;-71
2022/05/08 09:01:06;;;;;;;11.60;8.32;;;;;;;-139.48;100.00;61774.03;4999379;28;20048;-72
2022/05/08 09:03:55;;;;;;;12.15;9.45;;;;;;;-139.48;100.00;61774.03;4999346;28;20052;-71
2022/05/08 09:06:41;;;;;;;10.35;7.90;;;;;;;-139.48;100.00;61774.03;4999333;28;20520;-71
2022/05/08 09:09:31;;;;;;;12.98;8.70;;;;;;;-139.48;100.00;61774.03;4985659;28;20099;-72
2022/05/08 09:12:16;;;;;;;12.63;9.05;;;;;;;-139.48;100.00;61774.03;4999449;28;20084;-71
2022/05/08 09:15:00;;;;;;;11.73;9.25;;;;;;;-139.48;100.00;61774.03;4999377;28;20095;-71
2022/05/08 09:17:44;;;;;;;10.65;8.73;;;;;;;-139.48;100.00;61774.03;4999040;28;20052;-71
2022/05/08 09:20:39;;;;;;;10.57;8.25;;;;;;;-139.48;100.00;61774.03;4999377;28;20080;-71
2022/05/08 09:23:25;;;;;;;11.40;8.60;;;;;;;-139.48;100.00;61774.03;4986103;28;20049;-72
2022/05/08 09:26:09;;;;;;;10.90;8.68;;;;;;;-139.48;100.00;61774.03;5013857;28;20052;-72
2022/05/08 09:28:53;;;;;;;;;;;;;;;-139.48;100.00;61774.03;5014624;28;20062;-72
2022/05/08 09:31:39;;;;;;;14.43;9.95;;;;;;;-139.48;100.00;61774.03;4999522;28;19936;-71
2022/05/08 09:34:23;;;;;;;10.32;8.55;;;;;;;-139.48;100.00;61774.03;4999007;28;20513;-71
2022/05/08 09:37:08;;;;;;;12.18;9.32;;;;;;;-139.48;100.00;61774.03;5013859;28;20072;-72
2022/05/08 09:40:18;;;;;;;14.90;9.32;;;;;;;-139.48;100.00;61774.03;4999224;28;20573;-72
2022/05/08 09:43:02;;;;;;;9.55;7.70;;;;;;;-139.48;100.00;61774.03;5014120;28;20053;-71
2022/05/08 09:45:57;;;;;;;8.02;7.05;;;;;;;-139.48;100.00;61774.03;4998717;28;20445;-71
2022/05/08 09:48:41;;;;;;;17.10;8.88;;;;;;;-139.48;100.00;61774.03;4999239;28;20084;-71
2022/05/08 09:51:25;;;;;;;11.85;8.27;;;;;;;-139.48;100.00;61774.03;4984969;28;20560;-71
2022/05/08 09:54:09;;;;;;;10.40;7.88;;;;;;;-139.48;100.00;61774.03;4985478;28;20091;-71
2022/05/08 09:56:53;;;;;;;9.55;7.75;;;;;;;-139.48;100.00;61774.03;4998943;28;20053;-71
2022/05/08 09:59:37;;;;;;;;;;;;;;;-139.48;100.00;61774.03;5014146;28;20080;-71
2022/05/08 10:02:21;;;;;;;13.73;8.20;;;;;;;-139.48;100.00;61774.03;4998800;28;20355;-71
2022/05/08 10:05:06;;;;;;;10.32;7.43;;;;;;;-139.48;100.00;61774.03;4984877;28;20334;-71
2022/05/08 10:07:50;;;;;;;8.57;7.18;;;;;;;-139.48;100.00;61774.03;4984984;28;20052;-71
2022/05/08 10:16:51;;;;;;;8.10;6.93;;;;;;;-139.48;100.00;61774.03;5001067;28;20472;-72
2022/05/08 10:19:35;;;;;;;7.90;6.30;;;;;;;-139.48;100.00;61774.03;4998803;28;20088;-72
2022/05/08 10:22:19;;;;;;;10.38;6.55;;;;;;;-139.48;100.00;61774.03;5015345;28;20517;-72
2022/05/08 10:25:15;;;;;;;10.27;6.68;;;;;;;-139.48;100.00;61774.03;5002622;28;20045;-71
2022/05/08 10:28:06;;;;;;;7.90;7.20;;;;;;;-139.48;100.00;61774.03;4989070;28;20100;-71
2022/05/08 10:30:51;;;;;;;7.45;5.60;;;;;;;-139.48;100.00;61774.03;5017478;28;20080;-71
2022/05/08 10:34:06;;;;;;;8.13;6.80;;;;;;;-139.48;100.00;61774.03;5002625;28;20048;-72
2022/05/08 10:37:11;;;;;;;7.25;6.55;;;;;;;-139.48;100.00;61774.03;5002519;28;20505;-72
2022/05/08 10:39:56;;;;;;;6.45;5.95;;;;;;;-139.48;100.00;61774.03;5002679;28;20049;-72
2022/05/08 10:42:44;;;;;;;6.68;6.07;;;;;;;-139.48;100.00;61774.03;5002425;28;20096;-72
2022/05/08 10:45:31;;;;;;;7.78;6.30;;;;;;;-139.48;100.00;61774.03;5002685;28;20053;-71
2022/05/08 10:48:16;;;;;;;6.90;6.20;;;;;;;-139.48;100.00;61774.03;5017120;28;20253;-71
2022/05/08 10:51:00;;;;;;;8.80;5.78;;;;;;;-139.48;100.00;61774.03;4988733;28;20049;-71
2022/05/08 10:53:47;;;;;;;8.20;6.43;;;;;;;-139.48;100.00;61774.03;5001841;28;20080;-72
2022/05/08 10:56:45;;;;;;;6.78;5.85;;;;;;;-139.48;100.00;61774.03;4988339;28;20088;-71
2022/05/08 10:59:49;;;;;;;6.85;5.90;;;;;;;-139.48;100.00;61774.03;5002083;28;20076;-72
2022/05/08 11:02:52;;;;;;;6.10;5.50;;;;;;;-139.48;100.00;61774.03;5016761;28;20050;-73
2022/05/08 11:05:38;;;;;;;7.80;6.05;;;;;;;-139.48;100.00;61774.03;5016533;28;20564;-72
2022/05/08 11:08:24;;;;;;;7.50;5.55;;;;;;;-139.48;100.00;61774.03;4988172;28;20048;-71
2022/05/08 11:11:09;;;;;;;10.25;5.63;;;;;;;-139.48;100.00;61774.03;5001926;28;20108;-72
2022/05/08 11:13:53;;;;;;;6.53;6.00;;;;;;;-139.48;100.00;61774.03;5001910;28;20040;-72
2022/05/08 11:16:37;;;;;;;6.93;5.32;;;;;;;-139.48;100.00;61774.03;5001654;28;20510;-71
2022/05/08 11:19:21;;;;;;;4.88;4.38;;;;;;;-139.48;100.00;61774.03;5016280;28;20057;-72
2022/05/08 11:22:06;;;;;;;7.88;4.93;;;;;;;-139.48;100.00;61774.03;5016503;28;20053;-72
2022/05/08 11:24:50;;;;;;;6.45;4.55;;;;;;;-139.48;100.00;61774.03;5001899;28;20045;-72
2022/05/08 11:27:34;;;;;;;5.65;5.07;;;;;;;-139.48;100.00;61774.03;5001541;28;20563;-72
2022/05/08 11:30:37;;;;;;;8.27;4.43;;;;;;;-139.48;100.00;61774.03;5001216;28;20044;-72
2022/05/08 11:36:44;;;;;;;7.63;4.22;;;;;;;-139.48;100.00;61774.03;5004042;28;20124;-72
2022/05/08 11:39:28;;;;;;;5.35;4.85;;;;;;;-139.48;100.00;61774.03;5001157;28;20516;-71
2022/05/08 11:42:13;;;;;;;4.65;3.97;;;;;;;-139.48;100.00;61774.03;5001243;28;20128;-72
2022/05/08 11:45:05;;;;;;;4.97;3.90;;;;;;;-139.48;100.00;61774.03;5001132;28;20103;-72
2022/05/08 11:47:50;;;;;;;5.20;3.70;;;;;;;-139.48;100.00;61774.03;5001368;28;20100;-71
2022/05/08 11:50:34;;;;;;;5.38;4.60;;;;;;;-139.48;100.00;61774.03;5001193;28;20053;-72
2022/05/08 11:53:18;;;;;;;4.18;3.78;;;;;;;-139.48;100.00;61774.03;5000777;28;20052;-72
2022/05/08 11:56:03;;;;;;;4.88;4.03;;;;;;;-139.48;100.00;61774.03;4986937;28;20056;-72
2022/05/08 11:58:47;;;;;;;5.45;4.05;;;;;;;-139.48;100.00;61774.03;5000940;28;20496;-72
2022/05/08 12:01:33;;;;;;;4.38;3.97;;;;;;;-139.48;100.00;61774.03;5000922;28;20057;-72
2022/05/08 12:04:24;;;;;;;4.25;3.85;;;;;;;-139.48;100.00;61774.03;5000753;28;20460;-71
2022/05/08 12:07:12;;;;;;;5.95;3.70;;;;;;;-139.48;100.00;61774.03;5015685;28;20057;-71
2022/05/08 12:09:56;;;;;;;5.28;3.83;;;;;;;-139.48;100.00;61774.03;5001073;28;20069;-72
2022/05/08 12:12:42;;;;;;;4.07;3.25;;;;;;;-139.48;100.00;61774.03;5015288;28;20552;-72
2022/05/08 12:15:26;;;;;;;5.57;3.97;;;;;;;-139.48;100.00;61774.03;5000702;28;20048;-72
2022/05/08 12:18:10;;;;;;;4.32;3.58;;;;;;;-139.48;100.00;61774.03;5000397;28;20192;-72
2022/05/08 12:20:54;;;;;;;5.68;3.75;;;;;;;-139.48;100.00;61774.03;4986763;28;20414;-72
2022/05/08 12:23:44;;;;;;;4.10;3.70;;;;;;;-139.48;100.00;61774.03;5000527;28;20045;-72
2022/05/08 12:26:28;;;;;;;4.40;3.95;;;;;;;-139.48;100.00;61774.03;5014896;28;20567;-71
2022/05/08 12:29:22;;;;;;;4.00;3.70;;;;;;;-139.48;100.00;61774.03;5014993;28;20088;-72
2022/05/08 12:32:06;;;;;;;4.30;3.55;;;;;;;-139.48;100.00;61774.03;5000654;28;20060;-71
2022/05/08 12:34:50;;;;;;;4.32;3.80;;;;;;;-139.48;100.00;61774.03;5000165;28;20052;-72
2022/05/08 12:37:34;;;;;;;4.40;3.85;;;;;;;-139.48;100.00;61774.03;4986266;28;20053;-72
2022/05/08 12:40:19;;;;;;;5.85;3.75;;;;;;;-139.48;100.00;61774.03;5000219;28;20053;-72
2022/05/08 12:43:03;;;;;;;5.07;4.15;;;;;;;-139.48;100.00;61774.03;4999956;28;20049;-71
2022/05/08 12:45:49;;;;;;;7.57;3.95;;;;;;;-139.48;100.00;61774.03;5013866;28;20129;-71
2022/05/08 12:48:32;;;;;;;5.07;4.20;;;;;;;-139.48;100.00;61774.03;5000223;28;20060;-71
2022/05/08 12:51:16;;;;;;;5.30;4.03;;;;;;;-139.48;100.00;61774.03;4999969;28;20084;-71